sensor_id;sensor_type;location;lat;lon;timestamp;P1;durP1;ratioP1;P2;durP2;ratioP2
3967;SDS011;9221;42.646;23.380;2023-04-03T00:01:01;2.30;;;1.40;;
3967;SDS011;9221;42.646;23.380;2023-04-03T00:03:26;2.97;;;1.20;;
3967;SDS011;9221;42.646;23.380;2023-04-03T00:05:52;2.80;;;1.43;;
3967;SDS011;9221;42.646;23.380;2023-04-03T00:08:17;3.33;;;1.33;;
3967;SDS011;9221;42.646;23.380;2023-04-03T00:10:43;1.40;;;1.00;;
3967;SDS011;9221;42.646;23.380;2023-04-03T00:13:09;1.80;;;1.33;;
3967;SDS011;9221;42.646;23.380;2023-04-03T00:15:35;4.13;;;1.30;;
3967;SDS011;9221;42.646;23.380;2023-04-03T00:18:01;8.37;;;1.60;;
3967;SDS011;9221;42.646;23.380;2023-04-03T00:20:27;4.80;;;1.50;;
3967;SDS011;9221;42.646;23.380;2023-04-03T00:22:53;3.37;;;1.43;;
3967;SDS011;9221;42.646;23.380;2023-04-03T00:25:19;3.17;;;1.03;;
3967;SDS011;9221;42.646;23.380;2023-04-03T00:27:44;2.20;;;0.97;;
3967;SDS011;9221;42.646;23.380;2023-04-03T00:30:11;4.80;;;1.17;;
3967;SDS011;9221;42.646;23.380;2023-04-03T00:32:39;3.30;;;1.10;;
3967;SDS011;9221;42.646;23.380;2023-04-03T00:35:05;2.80;;;0.90;;
3967;SDS011;9221;42.646;23.380;2023-04-03T00:37:31;3.17;;;1.37;;
3967;SDS011;9221;42.646;23.380;2023-04-03T00:39:57;2.50;;;1.00;;
3967;SDS011;9221;42.646;23.380;2023-04-03T00:42:22;4.90;;;1.47;;
3967;SDS011;9221;42.646;23.380;2023-04-03T00:47:15;2.90;;;1.03;;
3967;SDS011;9221;42.646;23.380;2023-04-03T00:49:42;1.93;;;0.93;;
3967;SDS011;9221;42.646;23.380;2023-04-03T00:52:10;2.77;;;1.20;;
3967;SDS011;9221;42.646;23.380;2023-04-03T00:54:41;4.67;;;1.10;;
3967;SDS011;9221;42.646;23.380;2023-04-03T00:57:08;1.60;;;1.03;;
3967;SDS011;9221;42.646;23.380;2023-04-03T00:59:37;1.83;;;1.17;;
3967;SDS011;9221;42.646;23.380;2023-04-03T01:02:06;1.70;;;0.90;;
3967;SDS011;9221;42.646;23.380;2023-04-03T01:07:04;2.40;;;1.20;;
3967;SDS011;9221;42.646;23.380;2023-04-03T01:09:36;2.13;;;1.30;;
3967;SDS011;9221;42.646;23.380;2023-04-03T01:12:22;3.27;;;1.10;;
3967;SDS011;9221;42.646;23.380;2023-04-03T01:14:53;3.63;;;1.17;;
3967;SDS011;9221;42.646;23.380;2023-04-03T01:17:31;5.40;;;1.20;;
3967;SDS011;9221;42.646;23.380;2023-04-03T01:28:15;3.83;;;1.20;;
3967;SDS011;9221;42.646;23.380;2023-04-03T01:31:01;1.60;;;1.00;;
3967;SDS011;9221;42.646;23.380;2023-04-03T01:33:27;1.60;;;0.87;;
3967;SDS011;9221;42.646;23.380;2023-04-03T01:35:53;5.10;;;1.00;;
3967;SDS011;9221;42.646;23.380;2023-04-03T01:38:18;4.27;;;1.53;;
3967;SDS011;9221;42.646;23.380;2023-04-03T01:40:43;1.87;;;1.10;;
3967;SDS011;9221;42.646;23.380;2023-04-03T01:43:09;2.43;;;1.50;;
3967;SDS011;9221;42.646;23.380;2023-04-03T01:45:34;3.53;;;1.70;;
3967;SDS011;9221;42.646;23.380;2023-04-03T01:48:00;3.53;;;1.17;;
3967;SDS011;9221;42.646;23.380;2023-04-03T01:50:26;3.93;;;1.70;;
3967;SDS011;9221;42.646;23.380;2023-04-03T01:52:51;3.60;;;1.67;;
3967;SDS011;9221;42.646;23.380;2023-04-03T01:55:16;4.47;;;1.67;;
3967;SDS011;9221;42.646;23.380;2023-04-03T01:57:42;2.07;;;1.27;;
3967;SDS011;9221;42.646;23.380;2023-04-03T02:00:07;2.60;;;1.33;;
3967;SDS011;9221;42.646;23.380;2023-04-03T02:02:34;2.03;;;1.17;;
3967;SDS011;9221;42.646;23.380;2023-04-03T02:04:59;3.50;;;1.40;;
3967;SDS011;9221;42.646;23.380;2023-04-03T02:07:25;1.83;;;1.13;;
3967;SDS011;9221;42.646;23.380;2023-04-03T02:09:50;3.03;;;1.00;;
3967;SDS011;9221;42.646;23.380;2023-04-03T02:12:15;6.00;;;1.30;;
3967;SDS011;9221;42.646;23.380;2023-04-03T02:14:41;1.53;;;1.07;;
3967;SDS011;9221;42.646;23.380;2023-04-03T02:17:06;1.20;;;0.97;;
3967;SDS011;9221;42.646;23.380;2023-04-03T02:19:34;3.57;;;1.20;;
3967;SDS011;9221;42.646;23.380;2023-04-03T02:22:00;2.63;;;1.43;;
3967;SDS011;9221;42.646;23.380;2023-04-03T02:24:27;3.80;;;1.37;;
3967;SDS011;9221;42.646;23.380;2023-04-03T02:26:52;5.27;;;1.43;;
3967;SDS011;9221;42.646;23.380;2023-04-03T02:29:18;1.93;;;1.37;;
3967;SDS011;9221;42.646;23.380;2023-04-03T02:31:43;1.70;;;1.10;;
3967;SDS011;9221;42.646;23.380;2023-04-03T02:34:09;3.90;;;1.57;;
3967;SDS011;9221;42.646;23.380;2023-04-03T02:36:34;2.80;;;1.30;;
3967;SDS011;9221;42.646;23.380;2023-04-03T02:38:59;2.40;;;1.23;;
3967;SDS011;9221;42.646;23.380;2023-04-03T02:41:25;2.90;;;1.00;;
3967;SDS011;9221;42.646;23.380;2023-04-03T02:43:57;1.00;;;0.80;;
3967;SDS011;9221;42.646;23.380;2023-04-03T02:46:22;3.33;;;1.33;;
3967;SDS011;9221;42.646;23.380;2023-04-03T02:48:47;3.90;;;0.93;;
3967;SDS011;9221;42.646;23.380;2023-04-03T02:51:13;6.10;;;1.10;;
3967;SDS011;9221;42.646;23.380;2023-04-03T02:53:38;4.27;;;1.50;;
3967;SDS011;9221;42.646;23.380;2023-04-03T02:56:03;3.07;;;1.40;;
3967;SDS011;9221;42.646;23.380;2023-04-03T02:58:29;6.90;;;1.50;;
3967;SDS011;9221;42.646;23.380;2023-04-03T03:00:55;3.97;;;1.20;;
3967;SDS011;9221;42.646;23.380;2023-04-03T03:03:20;4.37;;;1.57;;
3967;SDS011;9221;42.646;23.380;2023-04-03T03:05:45;1.90;;;1.07;;
3967;SDS011;9221;42.646;23.380;2023-04-03T03:08:13;3.13;;;1.30;;
3967;SDS011;9221;42.646;23.380;2023-04-03T03:10:38;5.53;;;1.43;;
3967;SDS011;9221;42.646;23.380;2023-04-03T03:13:04;4.30;;;1.37;;
3967;SDS011;9221;42.646;23.380;2023-04-03T03:15:29;4.07;;;1.40;;
3967;SDS011;9221;42.646;23.380;2023-04-03T03:17:55;3.97;;;1.30;;
3967;SDS011;9221;42.646;23.380;2023-04-03T03:20:20;4.80;;;1.20;;
3967;SDS011;9221;42.646;23.380;2023-04-03T03:22:46;7.10;;;1.27;;
3967;SDS011;9221;42.646;23.380;2023-04-03T03:25:11;3.70;;;1.03;;
3967;SDS011;9221;42.646;23.380;2023-04-03T03:27:37;2.63;;;1.33;;
3967;SDS011;9221;42.646;23.380;2023-04-03T03:30:03;2.13;;;1.10;;
3967;SDS011;9221;42.646;23.380;2023-04-03T03:32:29;1.80;;;1.27;;
3967;SDS011;9221;42.646;23.380;2023-04-03T03:34:54;3.90;;;1.40;;
3967;SDS011;9221;42.646;23.380;2023-04-03T03:37:20;3.47;;;1.20;;
3967;SDS011;9221;42.646;23.380;2023-04-03T03:39:45;2.13;;;1.30;;
3967;SDS011;9221;42.646;23.380;2023-04-03T03:42:11;3.13;;;1.50;;
3967;SDS011;9221;42.646;23.380;2023-04-03T03:44:36;3.60;;;1.37;;
3967;SDS011;9221;42.646;23.380;2023-04-03T03:47:01;2.30;;;1.20;;
3967;SDS011;9221;42.646;23.380;2023-04-03T03:49:28;2.90;;;1.37;;
3967;SDS011;9221;42.646;23.380;2023-04-03T03:51:53;9.00;;;1.53;;
3967;SDS011;9221;42.646;23.380;2023-04-03T03:54:18;3.73;;;1.20;;
3967;SDS011;9221;42.646;23.380;2023-04-03T03:56:44;1.80;;;0.93;;
3967;SDS011;9221;42.646;23.380;2023-04-03T03:59:11;4.00;;;1.40;;
3967;SDS011;9221;42.646;23.380;2023-04-03T04:01:37;5.67;;;1.40;;
3967;SDS011;9221;42.646;23.380;2023-04-03T04:04:03;6.17;;;1.53;;
3967;SDS011;9221;42.646;23.380;2023-04-03T04:06:28;2.30;;;1.10;;
3967;SDS011;9221;42.646;23.380;2023-04-03T04:08:53;1.40;;;1.20;;
3967;SDS011;9221;42.646;23.380;2023-04-03T04:11:19;2.83;;;1.17;;
3967;SDS011;9221;42.646;23.380;2023-04-03T04:13:45;2.23;;;1.07;;
3967;SDS011;9221;42.646;23.380;2023-04-03T04:16:11;2.30;;;1.10;;
3967;SDS011;9221;42.646;23.380;2023-04-03T04:18:36;3.60;;;1.40;;
3967;SDS011;9221;42.646;23.380;2023-04-03T04:21:01;1.93;;;1.00;;
3967;SDS011;9221;42.646;23.380;2023-04-03T04:23:27;5.30;;;1.30;;
3967;SDS011;9221;42.646;23.380;2023-04-03T04:25:52;5.70;;;1.37;;
3967;SDS011;9221;42.646;23.380;2023-04-03T04:28:18;3.90;;;1.60;;
3967;SDS011;9221;42.646;23.380;2023-04-03T04:30:43;6.33;;;1.97;;
3967;SDS011;9221;42.646;23.380;2023-04-03T04:33:09;2.73;;;1.43;;
3967;SDS011;9221;42.646;23.380;2023-04-03T04:35:35;6.03;;;1.37;;
3967;SDS011;9221;42.646;23.380;2023-04-03T04:38:01;4.83;;;1.80;;
3967;SDS011;9221;42.646;23.380;2023-04-03T04:40:27;5.93;;;1.63;;
3967;SDS011;9221;42.646;23.380;2023-04-03T04:42:53;4.00;;;2.00;;
3967;SDS011;9221;42.646;23.380;2023-04-03T04:45:18;7.30;;;1.90;;
3967;SDS011;9221;42.646;23.380;2023-04-03T04:47:44;6.13;;;1.87;;
3967;SDS011;9221;42.646;23.380;2023-04-03T04:50:10;3.07;;;1.77;;
3967;SDS011;9221;42.646;23.380;2023-04-03T04:52:36;4.73;;;2.40;;
3967;SDS011;9221;42.646;23.380;2023-04-03T04:55:02;4.10;;;2.00;;
3967;SDS011;9221;42.646;23.380;2023-04-03T04:57:28;3.70;;;1.50;;
3967;SDS011;9221;42.646;23.380;2023-04-03T04:59:54;13.73;;;1.93;;
3967;SDS011;9221;42.646;23.380;2023-04-03T05:02:19;23.67;;;2.60;;
3967;SDS011;9221;42.646;23.380;2023-04-03T05:04:45;5.67;;;2.30;;
3967;SDS011;9221;42.646;23.380;2023-04-03T05:07:10;4.93;;;2.00;;
3967;SDS011;9221;42.646;23.380;2023-04-03T05:09:35;5.80;;;1.77;;
3967;SDS011;9221;42.646;23.380;2023-04-03T05:12:01;11.70;;;2.70;;
3967;SDS011;9221;42.646;23.380;2023-04-03T05:14:27;9.33;;;2.60;;
3967;SDS011;9221;42.646;23.380;2023-04-03T05:16:53;7.13;;;2.67;;
3967;SDS011;9221;42.646;23.380;2023-04-03T05:19:19;11.60;;;3.07;;
3967;SDS011;9221;42.646;23.380;2023-04-03T05:21:47;6.10;;;2.23;;
3967;SDS011;9221;42.646;23.380;2023-04-03T05:24:13;7.90;;;2.30;;
3967;SDS011;9221;42.646;23.380;2023-04-03T05:26:39;18.93;;;7.10;;
3967;SDS011;9221;42.646;23.380;2023-04-03T05:29:05;6.77;;;2.13;;
3967;SDS011;9221;42.646;23.380;2023-04-03T05:31:31;7.10;;;2.10;;
3967;SDS011;9221;42.646;23.380;2023-04-03T05:33:56;13.10;;;3.10;;
3967;SDS011;9221;42.646;23.380;2023-04-03T05:36:22;14.40;;;4.30;;
3967;SDS011;9221;42.646;23.380;2023-04-03T05:38:47;6.33;;;2.83;;
3967;SDS011;9221;42.646;23.380;2023-04-03T05:41:13;6.30;;;1.90;;
3967;SDS011;9221;42.646;23.380;2023-04-03T05:43:39;12.27;;;2.30;;
3967;SDS011;9221;42.646;23.380;2023-04-03T05:46:11;5.40;;;1.70;;
3967;SDS011;9221;42.646;23.380;2023-04-03T05:48:38;11.63;;;2.20;;
3967;SDS011;9221;42.646;23.380;2023-04-03T05:51:04;12.10;;;2.10;;
3967;SDS011;9221;42.646;23.380;2023-04-03T05:53:31;11.40;;;3.27;;
3967;SDS011;9221;42.646;23.380;2023-04-03T05:56:00;8.43;;;2.27;;
3967;SDS011;9221;42.646;23.380;2023-04-03T05:58:26;14.23;;;2.90;;
3967;SDS011;9221;42.646;23.380;2023-04-03T06:00:51;8.70;;;3.77;;
3967;SDS011;9221;42.646;23.380;2023-04-03T06:03:17;10.60;;;3.53;;
3967;SDS011;9221;42.646;23.380;2023-04-03T06:05:42;9.40;;;4.20;;
3967;SDS011;9221;42.646;23.380;2023-04-03T06:08:08;19.60;;;4.40;;
3967;SDS011;9221;42.646;23.380;2023-04-03T06:10:34;10.57;;;4.50;;
3967;SDS011;9221;42.646;23.380;2023-04-03T06:12:59;17.17;;;5.10;;
3967;SDS011;9221;42.646;23.380;2023-04-03T06:15:25;10.37;;;5.00;;
3967;SDS011;9221;42.646;23.380;2023-04-03T06:17:50;16.23;;;5.30;;
3967;SDS011;9221;42.646;23.380;2023-04-03T06:20:16;13.70;;;5.50;;
3967;SDS011;9221;42.646;23.380;2023-04-03T06:22:41;13.83;;;4.20;;
3967;SDS011;9221;42.646;23.380;2023-04-03T06:25:07;16.70;;;2.93;;
3967;SDS011;9221;42.646;23.380;2023-04-03T06:27:34;19.53;;;3.33;;
3967;SDS011;9221;42.646;23.380;2023-04-03T06:29:59;20.57;;;4.73;;
3967;SDS011;9221;42.646;23.380;2023-04-03T06:32:25;22.90;;;3.77;;
3967;SDS011;9221;42.646;23.380;2023-04-03T06:34:51;14.13;;;3.03;;
3967;SDS011;9221;42.646;23.380;2023-04-03T06:37:19;11.93;;;3.67;;
3967;SDS011;9221;42.646;23.380;2023-04-03T06:39:45;18.70;;;3.20;;
3967;SDS011;9221;42.646;23.380;2023-04-03T06:42:11;6.57;;;3.30;;
3967;SDS011;9221;42.646;23.380;2023-04-03T06:44:37;11.23;;;3.33;;
3967;SDS011;9221;42.646;23.380;2023-04-03T06:47:02;15.13;;;3.20;;
3967;SDS011;9221;42.646;23.380;2023-04-03T06:49:28;7.10;;;2.60;;
3967;SDS011;9221;42.646;23.380;2023-04-03T06:51:54;16.67;;;3.00;;
3967;SDS011;9221;42.646;23.380;2023-04-03T06:54:20;7.73;;;3.00;;
3967;SDS011;9221;42.646;23.380;2023-04-03T06:56:45;10.50;;;2.90;;
3967;SDS011;9221;42.646;23.380;2023-04-03T06:59:11;10.53;;;2.83;;
3967;SDS011;9221;42.646;23.380;2023-04-03T07:01:40;12.00;;;2.97;;
3967;SDS011;9221;42.646;23.380;2023-04-03T07:04:06;6.20;;;2.67;;
3967;SDS011;9221;42.646;23.380;2023-04-03T07:06:32;7.30;;;2.93;;
3967;SDS011;9221;42.646;23.380;2023-04-03T07:08:58;4.50;;;2.57;;
3967;SDS011;9221;42.646;23.380;2023-04-03T07:11:24;6.70;;;2.83;;
3967;SDS011;9221;42.646;23.380;2023-04-03T07:13:51;9.67;;;3.00;;
3967;SDS011;9221;42.646;23.380;2023-04-03T07:16:16;8.50;;;3.27;;
3967;SDS011;9221;42.646;23.380;2023-04-03T07:18:42;6.77;;;3.43;;
3967;SDS011;9221;42.646;23.380;2023-04-03T07:21:07;15.23;;;4.70;;
3967;SDS011;9221;42.646;23.380;2023-04-03T07:23:33;14.63;;;4.33;;
3967;SDS011;9221;42.646;23.380;2023-04-03T07:25:58;15.50;;;4.23;;
3967;SDS011;9221;42.646;23.380;2023-04-03T07:28:24;13.93;;;5.30;;
3967;SDS011;9221;42.646;23.380;2023-04-03T07:30:50;12.10;;;5.17;;
3967;SDS011;9221;42.646;23.380;2023-04-03T07:33:18;16.83;;;5.97;;
3967;SDS011;9221;42.646;23.380;2023-04-03T07:35:45;15.63;;;5.67;;
3967;SDS011;9221;42.646;23.380;2023-04-03T07:38:10;15.87;;;5.80;;
3967;SDS011;9221;42.646;23.380;2023-04-03T07:40:36;16.70;;;6.07;;
3967;SDS011;9221;42.646;23.380;2023-04-03T07:43:02;26.47;;;6.83;;
3967;SDS011;9221;42.646;23.380;2023-04-03T07:45:28;25.30;;;5.77;;
3967;SDS011;9221;42.646;23.380;2023-04-03T07:47:54;27.97;;;9.40;;
3967;SDS011;9221;42.646;23.380;2023-04-03T07:50:19;26.60;;;9.47;;
3967;SDS011;9221;42.646;23.380;2023-04-03T07:52:45;27.10;;;9.63;;
3967;SDS011;9221;42.646;23.380;2023-04-03T07:55:12;32.47;;;10.30;;
3967;SDS011;9221;42.646;23.380;2023-04-03T07:57:37;32.40;;;10.47;;
3967;SDS011;9221;42.646;23.380;2023-04-03T08:00:03;56.97;;;10.67;;
3967;SDS011;9221;42.646;23.380;2023-04-03T08:02:30;27.30;;;9.77;;
3967;SDS011;9221;42.646;23.380;2023-04-03T08:04:56;35.17;;;10.73;;
3967;SDS011;9221;42.646;23.380;2023-04-03T08:07:22;23.37;;;11.10;;
3967;SDS011;9221;42.646;23.380;2023-04-03T08:09:48;38.90;;;11.60;;
3967;SDS011;9221;42.646;23.380;2023-04-03T08:12:14;23.63;;;9.63;;
3967;SDS011;9221;42.646;23.380;2023-04-03T08:14:39;30.20;;;9.90;;
3967;SDS011;9221;42.646;23.380;2023-04-03T08:17:05;34.83;;;11.10;;
3967;SDS011;9221;42.646;23.380;2023-04-03T08:19:34;24.30;;;10.30;;
3967;SDS011;9221;42.646;23.380;2023-04-03T08:22:00;28.70;;;11.40;;
3967;SDS011;9221;42.646;23.380;2023-04-03T08:24:27;34.53;;;10.70;;
3967;SDS011;9221;42.646;23.380;2023-04-03T08:26:53;25.67;;;10.07;;
3967;SDS011;9221;42.646;23.380;2023-04-03T08:29:19;67.83;;;11.43;;
3967;SDS011;9221;42.646;23.380;2023-04-03T08:31:46;33.83;;;10.70;;
3967;SDS011;9221;42.646;23.380;2023-04-03T08:34:11;28.70;;;9.90;;
3967;SDS011;9221;42.646;23.380;2023-04-03T08:36:38;30.57;;;9.73;;
3967;SDS011;9221;42.646;23.380;2023-04-03T08:39:03;27.47;;;9.27;;
3967;SDS011;9221;42.646;23.380;2023-04-03T08:49:23;25.73;;;8.43;;
3967;SDS011;9221;42.646;23.380;2023-04-03T08:51:56;44.53;;;9.30;;
3967;SDS011;9221;42.646;23.380;2023-04-03T08:54:28;23.20;;;9.30;;
3967;SDS011;9221;42.646;23.380;2023-04-03T08:56:58;27.77;;;8.37;;
3967;SDS011;9221;42.646;23.380;2023-04-03T08:59:28;23.53;;;8.23;;
3967;SDS011;9221;42.646;23.380;2023-04-03T09:01:57;26.50;;;9.37;;
3967;SDS011;9221;42.646;23.380;2023-04-03T09:04:27;21.97;;;8.27;;
3967;SDS011;9221;42.646;23.380;2023-04-03T09:06:58;21.67;;;7.67;;
3967;SDS011;9221;42.646;23.380;2023-04-03T09:09:35;23.17;;;6.20;;
3967;SDS011;9221;42.646;23.380;2023-04-03T09:21:17;30.23;;;6.27;;
3967;SDS011;9221;42.646;23.380;2023-04-03T09:26:19;12.10;;;5.70;;
3967;SDS011;9221;42.646;23.380;2023-04-03T09:28:51;18.13;;;5.67;;
3967;SDS011;9221;42.646;23.380;2023-04-03T09:33:52;9.20;;;4.30;;
3967;SDS011;9221;42.646;23.380;2023-04-03T09:36:41;13.93;;;4.80;;
3967;SDS011;9221;42.646;23.380;2023-04-03T09:39:10;9.33;;;3.50;;
3967;SDS011;9221;42.646;23.380;2023-04-03T09:44:40;6.70;;;2.97;;
3967;SDS011;9221;42.646;23.380;2023-04-03T09:47:51;8.67;;;3.00;;
3967;SDS011;9221;42.646;23.380;2023-04-03T09:52:43;12.20;;;2.70;;
3967;SDS011;9221;42.646;23.380;2023-04-03T09:55:18;10.63;;;3.97;;
3967;SDS011;9221;42.646;23.380;2023-04-03T09:57:52;8.43;;;3.40;;
3967;SDS011;9221;42.646;23.380;2023-04-03T10:00:20;16.13;;;3.70;;
3967;SDS011;9221;42.646;23.380;2023-04-03T10:02:53;11.57;;;3.90;;
3967;SDS011;9221;42.646;23.380;2023-04-03T10:05:32;11.20;;;4.50;;
3967;SDS011;9221;42.646;23.380;2023-04-03T10:10:43;4.00;;;2.40;;
3967;SDS011;9221;42.646;23.380;2023-04-03T10:13:14;4.80;;;2.70;;
3967;SDS011;9221;42.646;23.380;2023-04-03T10:16:29;6.50;;;2.77;;
3967;SDS011;9221;42.646;23.380;2023-04-03T10:21:24;6.47;;;2.67;;
3967;SDS011;9221;42.646;23.380;2023-04-03T10:27:21;5.60;;;2.90;;
3967;SDS011;9221;42.646;23.380;2023-04-03T10:29:53;4.97;;;2.17;;
3967;SDS011;9221;42.646;23.380;2023-04-03T10:40:34;3.50;;;1.50;;
3967;SDS011;9221;42.646;23.380;2023-04-03T10:45:49;5.80;;;1.93;;
3967;SDS011;9221;42.646;23.380;2023-04-03T10:48:25;2.70;;;1.17;;
3967;SDS011;9221;42.646;23.380;2023-04-03T10:53:46;2.00;;;1.23;;
3967;SDS011;9221;42.646;23.380;2023-04-03T11:02:21;4.33;;;1.90;;
3967;SDS011;9221;42.646;23.380;2023-04-03T11:04:56;2.50;;;1.63;;
3967;SDS011;9221;42.646;23.380;2023-04-03T11:07:38;3.37;;;1.47;;
3967;SDS011;9221;42.646;23.380;2023-04-03T11:10:42;3.87;;;1.47;;
3967;SDS011;9221;42.646;23.380;2023-04-03T11:15:48;3.83;;;1.80;;
3967;SDS011;9221;42.646;23.380;2023-04-03T11:18:21;5.37;;;1.90;;
3967;SDS011;9221;42.646;23.380;2023-04-03T11:21:03;5.10;;;2.07;;
3967;SDS011;9221;42.646;23.380;2023-04-03T11:23:37;6.47;;;1.97;;
3967;SDS011;9221;42.646;23.380;2023-04-03T11:26:10;3.50;;;1.60;;
3967;SDS011;9221;42.646;23.380;2023-04-03T11:28:37;4.77;;;2.07;;
3967;SDS011;9221;42.646;23.380;2023-04-03T11:36:29;7.00;;;1.87;;
3967;SDS011;9221;42.646;23.380;2023-04-03T11:39:00;3.80;;;2.13;;
3967;SDS011;9221;42.646;23.380;2023-04-03T11:41:35;4.40;;;2.03;;
3967;SDS011;9221;42.646;23.380;2023-04-03T11:44:05;3.53;;;1.90;;
3967;SDS011;9221;42.646;23.380;2023-04-03T12:05:50;8.20;;;2.70;;
3967;SDS011;9221;42.646;23.380;2023-04-03T12:13:36;4.30;;;2.60;;
3967;SDS011;9221;42.646;23.380;2023-04-03T12:16:04;6.33;;;2.60;;
3967;SDS011;9221;42.646;23.380;2023-04-03T12:19:24;8.50;;;3.00;;
3967;SDS011;9221;42.646;23.380;2023-04-03T12:29:34;4.43;;;1.93;;
3967;SDS011;9221;42.646;23.380;2023-04-03T12:43:14;6.40;;;3.00;;
3967;SDS011;9221;42.646;23.380;2023-04-03T12:48:24;6.43;;;3.40;;
3967;SDS011;9221;42.646;23.380;2023-04-03T12:50:52;4.03;;;2.63;;
3967;SDS011;9221;42.646;23.380;2023-04-03T12:55:46;4.00;;;2.60;;
3967;SDS011;9221;42.646;23.380;2023-04-03T12:58:21;4.57;;;2.63;;
3967;SDS011;9221;42.646;23.380;2023-04-03T13:00:58;4.77;;;2.60;;
3967;SDS011;9221;42.646;23.380;2023-04-03T13:03:27;8.03;;;2.63;;
3967;SDS011;9221;42.646;23.380;2023-04-03T13:06:00;5.80;;;2.77;;
3967;SDS011;9221;42.646;23.380;2023-04-03T13:08:27;8.23;;;2.23;;
3967;SDS011;9221;42.646;23.380;2023-04-03T13:13:30;9.87;;;2.97;;
3967;SDS011;9221;42.646;23.380;2023-04-03T13:15:56;8.13;;;2.70;;
3967;SDS011;9221;42.646;23.380;2023-04-03T13:20:47;4.40;;;2.63;;
3967;SDS011;9221;42.646;23.380;2023-04-03T13:23:13;4.03;;;2.57;;
3967;SDS011;9221;42.646;23.380;2023-04-03T13:25:43;5.87;;;3.30;;
3967;SDS011;9221;42.646;23.380;2023-04-03T13:28:13;8.53;;;3.43;;
3967;SDS011;9221;42.646;23.380;2023-04-03T13:30:54;4.60;;;2.83;;
3967;SDS011;9221;42.646;23.380;2023-04-03T13:33:24;5.33;;;2.70;;
3967;SDS011;9221;42.646;23.380;2023-04-03T13:35:54;6.37;;;3.20;;
3967;SDS011;9221;42.646;23.380;2023-04-03T13:38:24;6.83;;;3.47;;
3967;SDS011;9221;42.646;23.380;2023-04-03T13:40:56;8.37;;;4.00;;
3967;SDS011;9221;42.646;23.380;2023-04-03T13:43:26;8.97;;;3.73;;
3967;SDS011;9221;42.646;23.380;2023-04-03T13:45:55;15.97;;;4.20;;
3967;SDS011;9221;42.646;23.380;2023-04-03T13:48:21;10.23;;;3.90;;
3967;SDS011;9221;42.646;23.380;2023-04-03T13:53:16;7.57;;;3.93;;
3967;SDS011;9221;42.646;23.380;2023-04-03T13:58:34;8.43;;;3.10;;
3967;SDS011;9221;42.646;23.380;2023-04-03T14:01:14;5.80;;;3.57;;
3967;SDS011;9221;42.646;23.380;2023-04-03T14:03:51;5.53;;;3.30;;
3967;SDS011;9221;42.646;23.380;2023-04-03T14:06:16;6.53;;;3.20;;
3967;SDS011;9221;42.646;23.380;2023-04-03T14:08:42;9.40;;;3.43;;
3967;SDS011;9221;42.646;23.380;2023-04-03T14:11:13;6.40;;;3.50;;
3967;SDS011;9221;42.646;23.380;2023-04-03T14:13:46;8.90;;;3.60;;
3967;SDS011;9221;42.646;23.380;2023-04-03T14:16:17;12.37;;;5.67;;
3967;SDS011;9221;42.646;23.380;2023-04-03T14:18:45;10.63;;;4.33;;
3967;SDS011;9221;42.646;23.380;2023-04-03T14:21:12;10.27;;;4.00;;
3967;SDS011;9221;42.646;23.380;2023-04-03T14:23:39;8.87;;;4.77;;
3967;SDS011;9221;42.646;23.380;2023-04-03T14:26:08;14.23;;;6.57;;
3967;SDS011;9221;42.646;23.380;2023-04-03T14:28:38;10.17;;;4.50;;
3967;SDS011;9221;42.646;23.380;2023-04-03T14:31:05;12.37;;;5.20;;
3967;SDS011;9221;42.646;23.380;2023-04-03T14:33:31;10.63;;;5.57;;
3967;SDS011;9221;42.646;23.380;2023-04-03T14:35:59;8.90;;;4.90;;
3967;SDS011;9221;42.646;23.380;2023-04-03T14:38:28;11.10;;;5.10;;
3967;SDS011;9221;42.646;23.380;2023-04-03T14:40:56;11.00;;;4.97;;
3967;SDS011;9221;42.646;23.380;2023-04-03T14:43:22;11.47;;;5.00;;
3967;SDS011;9221;42.646;23.380;2023-04-03T14:45:49;7.80;;;4.40;;
3967;SDS011;9221;42.646;23.380;2023-04-03T14:48:17;6.00;;;3.57;;
3967;SDS011;9221;42.646;23.380;2023-04-03T14:50:45;5.63;;;3.63;;
3967;SDS011;9221;42.646;23.380;2023-04-03T14:53:11;9.67;;;4.27;;
3967;SDS011;9221;42.646;23.380;2023-04-03T14:55:39;8.63;;;4.00;;
3967;SDS011;9221;42.646;23.380;2023-04-03T14:58:17;8.33;;;4.20;;
3967;SDS011;9221;42.646;23.380;2023-04-03T15:00:45;9.03;;;4.03;;
3967;SDS011;9221;42.646;23.380;2023-04-03T15:03:17;13.60;;;4.20;;
3967;SDS011;9221;42.646;23.380;2023-04-03T15:05:45;6.37;;;3.40;;
3967;SDS011;9221;42.646;23.380;2023-04-03T15:08:16;4.37;;;2.70;;
3967;SDS011;9221;42.646;23.380;2023-04-03T15:10:46;4.27;;;2.67;;
3967;SDS011;9221;42.646;23.380;2023-04-03T15:13:12;5.40;;;3.10;;
3967;SDS011;9221;42.646;23.380;2023-04-03T15:15:38;3.40;;;2.10;;
3967;SDS011;9221;42.646;23.380;2023-04-03T15:18:04;5.10;;;2.47;;
3967;SDS011;9221;42.646;23.380;2023-04-03T15:20:30;5.23;;;2.57;;
3967;SDS011;9221;42.646;23.380;2023-04-03T15:22:58;3.77;;;2.30;;
3967;SDS011;9221;42.646;23.380;2023-04-03T15:25:28;8.67;;;2.60;;
3967;SDS011;9221;42.646;23.380;2023-04-03T15:27:54;4.87;;;2.13;;
3967;SDS011;9221;42.646;23.380;2023-04-03T15:30:20;4.80;;;2.70;;
3967;SDS011;9221;42.646;23.380;2023-04-03T15:32:46;4.53;;;2.23;;
3967;SDS011;9221;42.646;23.380;2023-04-03T15:35:13;6.07;;;2.90;;
3967;SDS011;9221;42.646;23.380;2023-04-03T15:37:39;5.80;;;3.13;;
3967;SDS011;9221;42.646;23.380;2023-04-03T15:40:05;5.90;;;3.13;;
3967;SDS011;9221;42.646;23.380;2023-04-03T15:42:31;4.43;;;2.70;;
3967;SDS011;9221;42.646;23.380;2023-04-03T15:44:57;3.33;;;2.03;;
3967;SDS011;9221;42.646;23.380;2023-04-03T15:47:22;3.80;;;1.87;;
3967;SDS011;9221;42.646;23.380;2023-04-03T15:49:50;4.73;;;2.50;;
3967;SDS011;9221;42.646;23.380;2023-04-03T15:52:15;5.43;;;2.87;;
3967;SDS011;9221;42.646;23.380;2023-04-03T15:54:41;4.33;;;2.63;;
3967;SDS011;9221;42.646;23.380;2023-04-03T15:57:06;5.00;;;2.80;;
3967;SDS011;9221;42.646;23.380;2023-04-03T15:59:32;5.70;;;3.67;;
3967;SDS011;9221;42.646;23.380;2023-04-03T16:01:57;8.67;;;3.80;;
3967;SDS011;9221;42.646;23.380;2023-04-03T16:04:25;11.97;;;4.17;;
3967;SDS011;9221;42.646;23.380;2023-04-03T16:06:51;4.60;;;3.30;;
3967;SDS011;9221;42.646;23.380;2023-04-03T16:09:17;8.57;;;4.27;;
3967;SDS011;9221;42.646;23.380;2023-04-03T16:11:42;7.93;;;4.10;;
3967;SDS011;9221;42.646;23.380;2023-04-03T16:14:08;9.20;;;4.17;;
3967;SDS011;9221;42.646;23.380;2023-04-03T16:16:34;7.47;;;3.90;;
3967;SDS011;9221;42.646;23.380;2023-04-03T16:19:01;8.00;;;4.10;;
3967;SDS011;9221;42.646;23.380;2023-04-03T16:21:27;8.07;;;3.67;;
3967;SDS011;9221;42.646;23.380;2023-04-03T16:23:53;13.20;;;4.07;;
3967;SDS011;9221;42.646;23.380;2023-04-03T16:26:18;7.43;;;3.57;;
3967;SDS011;9221;42.646;23.380;2023-04-03T16:28:45;5.20;;;2.77;;
3967;SDS011;9221;42.646;23.380;2023-04-03T16:31:10;10.93;;;3.73;;
3967;SDS011;9221;42.646;23.380;2023-04-03T16:33:35;10.90;;;3.77;;
3967;SDS011;9221;42.646;23.380;2023-04-03T16:36:02;5.77;;;3.37;;
3967;SDS011;9221;42.646;23.380;2023-04-03T16:38:29;7.00;;;3.00;;
3967;SDS011;9221;42.646;23.380;2023-04-03T16:40:54;8.20;;;2.70;;
3967;SDS011;9221;42.646;23.380;2023-04-03T16:43:22;6.30;;;3.50;;
3967;SDS011;9221;42.646;23.380;2023-04-03T16:45:47;4.77;;;2.67;;
3967;SDS011;9221;42.646;23.380;2023-04-03T16:48:13;6.63;;;3.00;;
3967;SDS011;9221;42.646;23.380;2023-04-03T16:50:39;9.40;;;2.90;;
3967;SDS011;9221;42.646;23.380;2023-04-03T16:53:04;8.17;;;4.70;;
3967;SDS011;9221;42.646;23.380;2023-04-03T16:55:33;8.27;;;3.83;;
3967;SDS011;9221;42.646;23.380;2023-04-03T16:57:58;5.33;;;3.23;;
3967;SDS011;9221;42.646;23.380;2023-04-03T17:00:24;5.67;;;3.50;;
3967;SDS011;9221;42.646;23.380;2023-04-03T17:02:49;8.50;;;4.10;;
3967;SDS011;9221;42.646;23.380;2023-04-03T17:05:15;8.67;;;3.10;;
3967;SDS011;9221;42.646;23.380;2023-04-03T17:07:40;4.33;;;2.60;;
3967;SDS011;9221;42.646;23.380;2023-04-03T17:10:06;7.23;;;2.10;;
3967;SDS011;9221;42.646;23.380;2023-04-03T17:12:31;5.73;;;2.60;;
3967;SDS011;9221;42.646;23.380;2023-04-03T17:14:57;4.77;;;2.70;;
3967;SDS011;9221;42.646;23.380;2023-04-03T17:17:23;2.80;;;2.20;;